Time;durP1;ratioP1;P1;durP2;ratioP2;P2;SDS_P1;SDS_P2;PMS_P1;PMS_P2;Temp;Humidity;BMP_temperature;BMP_pressure;BME280_temperature;BME280_humidity;BME280_pressure;Samples;Min_cycle;Max_cycle;Signal;HPM_P1;HPM_P2
2021/07/04 00:01:49;;;;;;;5.88;4.47;;;;;;;;;;5045503;28;20063;-69
2021/07/04 00:04:15;;;;;;;9.15;4.70;;;;;;;;;;5041379;28;20017;-69
2021/07/04 00:06:41;;;;;;;5.97;4.60;;;;;;;;;;5031568;28;20124;-70
2021/07/04 00:09:07;;;;;;;6.60;4.55;;;;;;;;;;5046435;28;20033;-68
2021/07/04 00:11:33;;;;;;;7.25;4.95;;;;;;;;;;5050834;28;20017;-68
2021/07/04 00:13:59;;;;;;;9.93;4.55;;;;;;;;;;5051048;28;20021;-70
2021/07/04 00:16:25;;;;;;;8.00;4.72;;;;;;;;;;5041625;28;20037;-69
2021/07/04 00:18:51;;;;;;;9.82;5.03;;;;;;;;;;5040398;28;20034;-69
2021/07/04 00:21:17;;;;;;;5.97;4.60;;;;;;;;;;5050020;28;20028;-69
2021/07/04 00:23:43;;;;;;;5.57;4.53;;;;;;;;;;5051883;28;20037;-68
2021/07/04 00:26:10;;;;;;;8.30;4.70;;;;;;;;;;5032565;28;20030;-70
2021/07/04 00:28:36;;;;;;;9.27;4.70;;;;;;;;;;5038574;28;20033;-69
2021/07/04 00:31:02;;;;;;;10.52;5.20;;;;;;;;;;5047772;28;20106;-69
2021/07/04 00:33:31;;;;;;;9.02;4.53;;;;;;;;;;5039991;28;20043;-68
2021/07/04 00:35:59;;;;;;;6.20;4.28;;;;;;;;;;5048756;28;20019;-70
2021/07/04 00:38:25;;;;;;;7.35;4.82;;;;;;;;;;5047881;28;20087;-69
2021/07/04 00:40:51;;;;;;;5.78;4.90;;;;;;;;;;5051542;28;20025;-68
2021/07/04 00:43:17;;;;;;;7.72;4.50;;;;;;;;;;5045868;28;20057;-69
2021/07/04 00:45:44;;;;;;;5.95;4.93;;;;;;;;;;5051731;28;20036;-69
2021/07/04 00:48:10;;;;;;;6.45;5.00;;;;;;;;;;5045574;28;20124;-70
2021/07/04 00:50:39;;;;;;;6.75;4.60;;;;;;;;;;5049622;28;20414;-69
2021/07/04 00:53:05;;;;;;;8.70;4.70;;;;;;;;;;5051491;28;20059;-70
2021/07/04 00:55:31;;;;;;;5.47;4.60;;;;;;;;;;5051408;28;20029;-69
2021/07/04 00:57:57;;;;;;;7.72;4.93;;;;;;;;;;5048079;28;20355;-68
2021/07/04 01:00:24;;;;;;;5.75;4.45;;;;;;;;;;5036237;28;20025;-68
2021/07/04 01:02:51;;;;;;;5.65;4.75;;;;;;;;;;5047292;28;20040;-70
2021/07/04 01:05:22;;;;;;;7.00;4.90;;;;;;;;;;5051286;28;20017;-69
2021/07/04 01:07:53;;;;;;;8.00;5.10;;;;;;;;;;5048135;28;20025;-69
2021/07/04 01:10:21;;;;;;;10.20;5.22;;;;;;;;;;5049235;28;20113;-69
2021/07/04 01:12:48;;;;;;;5.82;4.75;;;;;;;;;;5049367;28;20068;-69
2021/07/04 01:15:17;;;;;;;6.10;5.00;;;;;;;;;;5042946;28;20383;-69
2021/07/04 01:17:46;;;;;;;6.68;5.05;;;;;;;;;;5052347;28;20502;-69
2021/07/04 01:20:13;;;;;;;6.15;5.00;;;;;;;;;;5030583;28;20119;-69
2021/07/04 01:22:40;;;;;;;8.32;5.07;;;;;;;;;;5052252;28;20021;-69
2021/07/04 01:25:11;;;;;;;8.80;4.70;;;;;;;;;;5054787;28;20048;-70
2021/07/04 01:27:38;;;;;;;7.25;4.63;;;;;;;;;;5050141;28;20039;-69
2021/07/04 01:30:08;;;;;;;8.48;5.35;;;;;;;;;;5050090;28;20018;-69
2021/07/04 01:32:35;;;;;;;9.02;5.35;;;;;;;;;;5048662;28;20075;-68
2021/07/04 01:35:01;;;;;;;5.47;4.75;;;;;;;;;;5054554;28;20021;-69
2021/07/04 01:37:27;;;;;;;5.53;4.90;;;;;;;;;;5039644;28;20057;-68
2021/07/04 01:39:53;;;;;;;6.82;5.07;;;;;;;;;;5040807;28;20053;-70
2021/07/04 01:42:19;;;;;;;6.28;4.85;;;;;;;;;;5043730;28;20029;-70
2021/07/04 01:44:45;;;;;;;7.80;5.22;;;;;;;;;;5051471;28;20371;-68
2021/07/04 01:47:11;;;;;;;9.13;5.07;;;;;;;;;;5040953;28;20042;-69
2021/07/04 01:49:38;;;;;;;7.78;5.13;;;;;;;;;;5050643;28;20037;-69
2021/07/04 01:52:04;;;;;;;8.52;5.18;;;;;;;;;;5054245;28;20017;-69
2021/07/04 01:54:30;;;;;;;5.88;5.18;;;;;;;;;;5052017;28;20033;-68
2021/07/04 01:56:56;;;;;;;5.60;5.00;;;;;;;;;;5052329;28;20033;-69
2021/07/04 01:59:22;;;;;;;7.50;5.45;;;;;;;;;;5042900;28;20475;-68
2021/07/04 02:01:48;;;;;;;6.65;5.40;;;;;;;;;;5049127;28;20473;-68
2021/07/04 02:04:14;;;;;;;8.15;5.03;;;;;;;;;;5052739;28;20052;-70
2021/07/04 02:06:40;;;;;;;6.72;5.18;;;;;;;;;;5051698;28;20112;-70
2021/07/04 02:09:06;;;;;;;8.27;5.40;;;;;;;;;;5049503;28;20045;-70
2021/07/04 02:11:32;;;;;;;6.72;5.07;;;;;;;;;;5048885;28;20108;-69
2021/07/04 02:13:58;;;;;;;8.13;5.60;;;;;;;;;;5043470;28;20026;-70
2021/07/04 02:16:27;;;;;;;7.55;5.25;;;;;;;;;;5048682;28;20028;-69
2021/07/04 02:18:53;;;;;;;11.30;5.60;;;;;;;;;;5048296;28;20154;-70
2021/07/04 02:21:20;;;;;;;6.28;5.22;;;;;;;;;;5049212;28;20029;-70
2021/07/04 02:23:46;;;;;;;7.05;5.43;;;;;;;;;;5030258;28;20026;-69
2021/07/04 02:26:12;;;;;;;9.98;5.50;;;;;;;;;;5052547;28;20079;-68
2021/07/04 02:28:38;;;;;;;8.07;5.05;;;;;;;;;;5045901;28;20095;-70
2021/07/04 02:31:04;;;;;;;8.60;5.38;;;;;;;;;;5049104;28;20028;-69
2021/07/04 02:33:30;;;;;;;9.70;5.40;;;;;;;;;;5033067;28;20029;-69
2021/07/04 02:36:00;;;;;;;8.50;5.93;;;;;;;;;;5052163;28;20025;-69
2021/07/04 02:38:26;;;;;;;6.93;5.47;;;;;;;;;;5050875;28;20029;-68
2021/07/04 02:40:53;;;;;;;8.45;5.20;;;;;;;;;;5050261;28;20025;-68
2021/07/04 02:43:24;;;;;;;7.65;5.20;;;;;;;;;;5038271;28;20590;-69
2021/07/04 02:45:50;;;;;;;7.90;5.30;;;;;;;;;;5045326;28;20040;-70
2021/07/04 02:48:16;;;;;;;7.40;5.18;;;;;;;;;;5045373;28;20037;-69
2021/07/04 02:50:43;;;;;;;8.30;5.82;;;;;;;;;;5043177;28;20039;-68
2021/07/04 02:53:10;;;;;;;7.97;5.32;;;;;;;;;;5046163;28;20112;-70
2021/07/04 02:55:36;;;;;;;7.93;5.53;;;;;;;;;;5051974;28;20079;-69
2021/07/04 02:58:02;;;;;;;9.73;5.38;;;;;;;;;;5045625;28;20029;-68
2021/07/04 03:00:28;;;;;;;5.82;5.20;;;;;;;;;;5042982;28;20092;-69
2021/07/04 03:02:55;;;;;;;8.80;5.57;;;;;;;;;;5042547;28;20025;-68
2021/07/04 03:05:21;;;;;;;8.60;5.55;;;;;;;;;;5044121;28;20033;-68
2021/07/04 03:07:48;;;;;;;8.05;5.28;;;;;;;;;;5050093;28;20493;-70
2021/07/04 03:10:16;;;;;;;8.60;5.50;;;;;;;;;;5051651;28;20036;-70
2021/07/04 03:12:43;;;;;;;5.88;5.22;;;;;;;;;;5046012;28;20445;-70
2021/07/04 03:15:10;;;;;;;9.10;5.68;;;;;;;;;;5037088;28;20090;-69
2021/07/04 03:17:36;;;;;;;10.02;5.28;;;;;;;;;;5042087;28;20056;-69
2021/07/04 03:20:06;;;;;;;7.22;5.07;;;;;;;;;;5046735;28;20028;-68
2021/07/04 03:22:35;;;;;;;8.68;5.53;;;;;;;;;;5049111;28;20164;-70
2021/07/04 03:25:01;;;;;;;8.90;5.32;;;;;;;;;;5044660;28;20021;-70
2021/07/04 03:27:29;;;;;;;7.47;5.28;;;;;;;;;;5045364;28;20111;-67
2021/07/04 03:29:55;;;;;;;8.27;5.28;;;;;;;;;;5042665;28;20029;-69
2021/07/04 03:32:24;;;;;;;7.68;5.70;;;;;;;;;;5039327;28;20406;-69
2021/07/04 03:34:50;;;;;;;8.48;5.57;;;;;;;;;;5042475;28;20033;-70
2021/07/04 03:37:16;;;;;;;6.03;5.43;;;;;;;;;;5043737;28;20388;-69
2021/07/04 03:39:43;;;;;;;6.55;5.30;;;;;;;;;;5041730;28;20029;-69
2021/07/04 03:42:10;;;;;;;8.57;5.82;;;;;;;;;;5032183;28;20459;-68
2021/07/04 03:44:37;;;;;;;9.40;5.50;;;;;;;;;;5050972;28;20021;-70
2021/07/04 03:47:03;;;;;;;10.10;5.57;;;;;;;;;;5042235;28;20033;-70
2021/07/04 03:49:29;;;;;;;7.50;5.80;;;;;;;;;;5046166;28;20079;-69
2021/07/04 03:51:55;;;;;;;11.65;5.70;;;;;;;;;;5047742;28;20033;-68
2021/07/04 03:54:21;;;;;;;6.82;5.70;;;;;;;;;;5051536;28;20028;-70
2021/07/04 03:56:47;;;;;;;6.85;5.60;;;;;;;;;;5041255;28;20022;-69
2021/07/04 03:59:13;;;;;;;7.03;5.43;;;;;;;;;;5042958;28;20032;-67
2021/07/04 04:01:39;;;;;;;9.35;5.85;;;;;;;;;;5050743;28;20036;-70
2021/07/04 04:04:05;;;;;;;10.35;5.50;;;;;;;;;;5049221;28;20470;-68
2021/07/04 04:06:31;;;;;;;12.10;5.63;;;;;;;;;;5020649;28;20044;-69
2021/07/04 04:08:57;;;;;;;8.60;5.50;;;;;;;;;;5042764;28;20036;-68
2021/07/04 04:11:26;;;;;;;6.20;5.03;;;;;;;;;;5038319;28;20033;-70
2021/07/04 04:13:52;;;;;;;7.97;5.45;;;;;;;;;;5040500;28;20070;-68
2021/07/04 04:16:18;;;;;;;7.10;5.22;;;;;;;;;;5047167;28;20063;-68
2021/07/04 04:18:44;;;;;;;8.05;5.18;;;;;;;;;;5036656;28;20041;-69
2021/07/04 04:21:11;;;;;;;9.02;5.30;;;;;;;;;;5051174;28;20492;-70
2021/07/04 04:23:37;;;;;;;19.25;5.53;;;;;;;;;;5046388;28;20402;-68
2021/07/04 04:26:03;;;;;;;12.50;5.65;;;;;;;;;;5049441;28;20421;-68
2021/07/04 04:28:32;;;;;;;14.52;6.00;;;;;;;;;;5044343;28;20371;-70
2021/07/04 04:30:59;;;;;;;9.73;5.05;;;;;;;;;;5043496;28;20029;-69
2021/07/04 04:33:29;;;;;;;8.80;5.35;;;;;;;;;;5040263;28;20025;-70
2021/07/04 04:35:58;;;;;;;7.80;5.10;;;;;;;;;;5045796;28;20029;-70
2021/07/04 04:38:24;;;;;;;6.43;5.20;;;;;;;;;;5045559;28;20035;-69
2021/07/04 04:40:50;;;;;;;8.32;4.85;;;;;;;;;;5045582;28;20033;-70
2021/07/04 04:43:16;;;;;;;11.55;5.20;;;;;;;;;;5045952;28;20541;-69
2021/07/04 04:45:44;;;;;;;12.00;5.63;;;;;;;;;;5043863;28;20568;-70
2021/07/04 04:48:10;;;;;;;10.23;5.85;;;;;;;;;;5049140;28;20540;-69
2021/07/04 04:50:36;;;;;;;8.98;5.45;;;;;;;;;;5047298;28;20078;-69
2021/07/04 04:53:02;;;;;;;11.20;5.80;;;;;;;;;;5045378;28;20021;-69
2021/07/04 04:55:28;;;;;;;9.20;5.70;;;;;;;;;;5043132;28;20108;-70
2021/07/04 04:57:54;;;;;;;8.02;5.50;;;;;;;;;;5044226;28;20421;-69
2021/07/04 05:00:21;;;;;;;11.13;5.47;;;;;;;;;;5048598;28;20021;-70
2021/07/04 05:02:47;;;;;;;8.32;5.57;;;;;;;;;;5044109;28;20087;-68
2021/07/04 05:05:13;;;;;;;7.43;5.40;;;;;;;;;;5039672;28;20040;-70
2021/07/04 05:07:39;;;;;;;10.40;5.40;;;;;;;;;;5045070;28;20368;-68
2021/07/04 05:10:06;;;;;;;9.68;5.43;;;;;;;;;;5039176;28;20035;-70
2021/07/04 05:12:32;;;;;;;9.77;5.40;;;;;;;;;;5044291;28;20033;-69
2021/07/04 05:14:59;;;;;;;5.93;4.95;;;;;;;;;;5042531;28;20033;-69
2021/07/04 05:17:25;;;;;;;9.65;4.80;;;;;;;;;;5041208;28;20053;-70
2021/07/04 05:19:51;;;;;;;7.03;5.05;;;;;;;;;;5038461;28;20482;-69
2021/07/04 05:22:17;;;;;;;7.05;5.00;;;;;;;;;;5043931;28;20471;-69
2021/07/04 05:24:43;;;;;;;5.75;4.90;;;;;;;;;;5049316;28;20065;-69
2021/07/04 05:27:09;;;;;;;7.18;5.25;;;;;;;;;;5041584;28;20109;-69
2021/07/04 05:29:35;;;;;;;8.30;4.93;;;;;;;;;;5050066;28;20039;-70
2021/07/04 05:32:03;;;;;;;7.18;4.80;;;;;;;;;;5042789;28;20025;-80
2021/07/04 05:34:29;;;;;;;7.38;5.53;;;;;;;;;;5024376;28;20064;-69
2021/07/04 05:36:56;;;;;;;9.18;4.90;;;;;;;;;;5040826;28;20375;-69
2021/07/04 05:39:25;;;;;;;9.82;5.10;;;;;;;;;;5046430;28;20079;-69
2021/07/04 05:41:51;;;;;;;8.68;4.57;;;;;;;;;;5048340;28;20045;-69
2021/07/04 05:44:17;;;;;;;7.68;4.93;;;;;;;;;;5043409;28;20082;-70
2021/07/04 05:46:44;;;;;;;6.45;4.30;;;;;;;;;;5044268;28;20548;-69
2021/07/04 05:49:10;;;;;;;6.38;4.63;;;;;;;;;;5053010;28;20095;-69
2021/07/04 05:51:36;;;;;;;6.50;4.55;;;;;;;;;;5038381;28;20021;-68
2021/07/04 05:54:05;;;;;;;6.70;4.10;;;;;;;;;;5047056;28;20036;-69
2021/07/04 05:56:31;;;;;;;9.70;4.50;;;;;;;;;;5056070;28;20033;-68
2021/07/04 05:58:58;;;;;;;8.68;4.72;;;;;;;;;;5045218;28;20029;-87
2021/07/04 06:01:24;;;;;;;6.43;4.78;;;;;;;;;;5044010;28;20023;-72
2021/07/04 06:03:51;;;;;;;9.10;4.72;;;;;;;;;;5040001;28;20083;-75
2021/07/04 06:06:17;;;;;;;11.63;5.22;;;;;;;;;;5041550;28;20472;-70
2021/07/04 06:08:43;;;;;;;11.98;4.25;;;;;;;;;;5042760;28;20037;-70
2021/07/04 06:11:09;;;;;;;6.78;4.35;;;;;;;;;;5045475;28;20029;-67
2021/07/04 06:13:35;;;;;;;10.45;4.43;;;;;;;;;;5042340;28;20067;-67
2021/07/04 06:16:01;;;;;;;4.93;4.10;;;;;;;;;;5038500;28;20053;-67
2021/07/04 06:18:28;;;;;;;7.82;4.30;;;;;;;;;;5040479;28;20091;-71
2021/07/04 06:20:55;;;;;;;5.82;4.18;;;;;;;;;;5043844;28;20028;-72
2021/07/04 06:23:21;;;;;;;4.72;4.05;;;;;;;;;;5045313;28;20035;-74
2021/07/04 06:25:47;;;;;;;11.18;4.53;;;;;;;;;;5041691;28;20148;-67
2021/07/04 06:28:13;;;;;;;6.30;4.35;;;;;;;;;;5042329;28;20065;-67
2021/07/04 06:30:39;;;;;;;9.70;4.32;;;;;;;;;;5039690;28;20037;-73
2021/07/04 06:33:05;;;;;;;18.35;5.25;;;;;;;;;;5050092;28;20025;-66
2021/07/04 06:35:32;;;;;;;6.38;4.32;;;;;;;;;;5036558;28;20115;-72
2021/07/04 06:38:00;;;;;;;5.45;4.00;;;;;;;;;;5052100;28;20025;-70
2021/07/04 06:40:26;;;;;;;5.75;4.10;;;;;;;;;;5039187;28;20055;-80
2021/07/04 06:42:52;;;;;;;7.53;4.13;;;;;;;;;;5041017;28;20045;-80
2021/07/04 06:45:18;;;;;;;7.70;4.35;;;;;;;;;;5027428;28;20029;-90
2021/07/04 06:47:46;;;;;;;5.43;4.35;;;;;;;;;;5025665;28;20030;-85
2021/07/04 06:50:12;;;;;;;7.90;4.30;;;;;;;;;;5034063;28;20128;-68
2021/07/04 06:52:39;;;;;;;8.85;4.28;;;;;;;;;;5048324;28;20031;-73
2021/07/04 06:55:06;;;;;;;6.20;4.30;;;;;;;;;;5043055;28;20017;-72
2021/07/04 06:57:32;;;;;;;7.50;4.25;;;;;;;;;;5026003;28;20464;-71
2021/07/04 07:00:02;;;;;;;8.50;4.57;;;;;;;;;;5045960;28;20028;-72
2021/07/04 07:02:28;;;;;;;9.35;4.68;;;;;;;;;;5042543;28;20021;-70
2021/07/04 07:04:54;;;;;;;8.65;4.63;;;;;;;;;;5044863;28;20056;-72
2021/07/04 07:07:21;;;;;;;5.32;4.30;;;;;;;;;;5041383;28;20424;-73
2021/07/04 07:09:47;;;;;;;7.05;4.32;;;;;;;;;;5039566;28;20061;-72
2021/07/04 07:12:13;;;;;;;5.57;4.28;;;;;;;;;;5034924;28;20025;-72
2021/07/04 07:14:39;;;;;;;5.30;4.80;;;;;;;;;;5025283;28;20035;-78
2021/07/04 07:17:06;;;;;;;8.15;4.72;;;;;;;;;;5037920;28;20053;-70
2021/07/04 07:19:32;;;;;;;7.55;4.55;;;;;;;;;;5046709;28;20025;-72
2021/07/04 07:21:58;;;;;;;6.30;4.28;;;;;;;;;;5046205;28;20086;-76
2021/07/04 07:24:24;;;;;;;9.52;4.30;;;;;;;;;;5043519;28;20066;-76
2021/07/04 07:26:52;;;;;;;8.40;4.20;;;;;;;;;;5048676;28;20060;-72
2021/07/04 07:29:19;;;;;;;7.45;4.75;;;;;;;;;;5038856;28;20056;-72
2021/07/04 07:31:45;;;;;;;6.35;4.20;;;;;;;;;;5045362;28;20108;-72
2021/07/04 07:34:19;;;;;;;11.85;4.65;;;;;;;;;;5036586;28;20033;-76
2021/07/04 07:36:56;;;;;;;6.68;4.32;;;;;;;;;;5029396;28;20486;-78
2021/07/04 07:39:22;;;;;;;7.88;4.57;;;;;;;;;;5032408;28;20037;-79
2021/07/04 07:41:49;;;;;;;5.63;5.03;;;;;;;;;;5038268;28;20018;-89
2021/07/04 07:44:15;;;;;;;8.20;4.90;;;;;;;;;;5022470;28;20039;-69
2021/07/04 07:46:41;;;;;;;7.63;4.85;;;;;;;;;;5039063;28;20025;-69
2021/07/04 07:49:07;;;;;;;5.60;4.68;;;;;;;;;;5037003;28;20044;-69
2021/07/04 07:51:33;;;;;;;7.20;4.90;;;;;;;;;;5036641;28;20029;-71
2021/07/04 07:54:00;;;;;;;7.35;4.68;;;;;;;;;;5040222;28;20021;-70
2021/07/04 07:56:26;;;;;;;22.45;6.18;;;;;;;;;;5038148;28;20036;-67
2021/07/04 07:58:52;;;;;;;5.88;5.15;;;;;;;;;;5041093;28;20057;-70
2021/07/04 08:01:18;;;;;;;8.25;5.07;;;;;;;;;;5039142;28;20014;-66
2021/07/04 08:03:44;;;;;;;7.10;5.40;;;;;;;;;;5050481;28;20021;-71
2021/07/04 08:06:11;;;;;;;8.25;5.30;;;;;;;;;;5037351;28;20026;-70
2021/07/04 08:08:37;;;;;;;8.45;5.40;;;;;;;;;;5037128;28;20040;-70
2021/07/04 08:11:03;;;;;;;7.00;5.15;;;;;;;;;;5049797;28;20014;-71
2021/07/04 08:13:29;;;;;;;6.45;5.18;;;;;;;;;;5035747;28;20030;-74
2021/07/04 08:15:56;;;;;;;7.03;5.43;;;;;;;;;;5043371;28;20045;-67
2021/07/04 08:18:24;;;;;;;8.55;5.30;;;;;;;;;;5043660;28;20052;-75
2021/07/04 08:20:50;;;;;;;7.72;5.15;;;;;;;;;;5045166;28;20021;-75
2021/07/04 08:23:17;;;;;;;10.15;5.50;;;;;;;;;;5037152;28;20033;-75
2021/07/04 08:25:43;;;;;;;10.23;5.60;;;;;;;;;;5045408;28;20030;-75
2021/07/04 08:28:09;;;;;;;8.02;5.57;;;;;;;;;;5046187;28;20115;-77
2021/07/04 08:30:35;;;;;;;9.23;5.10;;;;;;;;;;5047393;28;20033;-81
2021/07/04 08:33:01;;;;;;;5.82;5.00;;;;;;;;;;5054159;28;20029;-72
2021/07/04 08:35:27;;;;;;;6.43;5.05;;;;;;;;;;5049646;28;20112;-70
2021/07/04 08:37:53;;;;;;;6.15;4.88;;;;;;;;;;5043691;28;20025;-68
2021/07/04 08:40:19;;;;;;;9.38;5.40;;;;;;;;;;5051172;28;20029;-68
2021/07/04 08:42:45;;;;;;;6.65;4.93;;;;;;;;;;5046403;28;20055;-82
2021/07/04 08:45:12;;;;;;;8.02;4.82;;;;;;;;;;5045900;28;20470;-83
2021/07/04 08:47:38;;;;;;;10.43;5.07;;;;;;;;;;5022670;28;20036;-71
2021/07/04 08:50:05;;;;;;;6.55;4.85;;;;;;;;;;5053311;28;20040;-70
2021/07/04 08:52:32;;;;;;;6.13;5.00;;;;;;;;;;5049308;28;20100;-70
2021/07/04 08:54:58;;;;;;;5.10;4.45;;;;;;;;;;5047171;28;20398;-71
2021/07/04 08:57:24;;;;;;;6.13;4.35;;;;;;;;;;5045197;28;20048;-70
2021/07/04 08:59:50;;;;;;;9.77;5.63;;;;;;;;;;5055000;28;20025;-70
2021/07/04 09:02:28;;;;;;;8.43;4.95;;;;;;;;;;5046892;28;20028;-67
2021/07/04 09:05:00;;;;;;;9.15;4.90;;;;;;;;;;5052920;28;20524;-68
2021/07/04 09:07:27;;;;;;;8.13;4.68;;;;;;;;;;5053584;28;20170;-72
2021/07/04 09:09:57;;;;;;;7.90;4.72;;;;;;;;;;5038479;28;20030;-72
2021/07/04 09:12:34;;;;;;;8.65;4.47;;;;;;;;;;5052742;28;20036;-84
2021/07/04 09:15:07;;;;;;;7.13;4.38;;;;;;;;;;5039815;28;20049;-74
2021/07/04 09:17:34;;;;;;;10.80;4.82;;;;;;;;;;5042972;28;20065;-67
2021/07/04 09:20:00;;;;;;;7.43;4.40;;;;;;;;;;5050143;28;20053;-71
2021/07/04 09:22:28;;;;;;;7.10;4.35;;;;;;;;;;5052848;28;20056;-66
2021/07/04 09:24:54;;;;;;;6.50;4.40;;;;;;;;;;5042838;28;20028;-65
2021/07/04 09:27:20;;;;;;;7.45;4.18;;;;;;;;;;5029810;28;20395;-70
2021/07/04 09:29:50;;;;;;;6.05;4.30;;;;;;;;;;5038224;28;20029;-65
2021/07/04 09:32:27;;;;;;;9.30;4.30;;;;;;;;;;5040475;28;20103;-66
2021/07/04 09:34:56;;;;;;;9.55;4.53;;;;;;;;;;5046902;28;20026;-73
2021/07/04 09:37:26;;;;;;;5.22;3.70;;;;;;;;;;5039846;28;20025;-70
2021/07/04 09:40:06;;;;;;;9.38;4.20;;;;;;;;;;5033363;28;20044;-70
2021/07/04 09:42:32;;;;;;;6.05;3.90;;;;;;;;;;5048799;28;20032;-69
2021/07/04 09:44:58;;;;;;;5.35;4.07;;;;;;;;;;5037521;28;20025;-73
2021/07/04 09:47:24;;;;;;;5.30;3.95;;;;;;;;;;5039606;28;20573;-71
2021/07/04 09:50:01;;;;;;;4.93;3.90;;;;;;;;;;5043363;28;20478;-65
2021/07/04 09:52:27;;;;;;;6.18;4.32;;;;;;;;;;5038163;28;20033;-70
2021/07/04 09:54:59;;;;;;;7.75;4.18;;;;;;;;;;5039801;28;20025;-65
2021/07/04 09:57:26;;;;;;;5.68;4.18;;;;;;;;;;5037558;28;20029;-67
2021/07/04 10:00:10;;;;;;;6.32;4.32;;;;;;;;;;5040251;28;20021;-65
2021/07/04 10:02:36;;;;;;;9.82;4.78;;;;;;;;;;5037466;28;20034;-68
2021/07/04 10:05:18;;;;;;;6.82;4.00;;;;;;;;;;5040250;28;20021;-72
2021/07/04 10:07:44;;;;;;;4.97;4.32;;;;;;;;;;5038135;28;20075;-67
2021/07/04 10:10:10;;;;;;;7.50;4.40;;;;;;;;;;5038951;28;20041;-69
2021/07/04 10:12:37;;;;;;;6.95;4.40;;;;;;;;;;5037281;28;20017;-70
2021/07/04 10:15:03;;;;;;;6.20;3.97;;;;;;;;;;5039218;28;20063;-71
2021/07/04 10:17:29;;;;;;;5.57;4.40;;;;;;;;;;5046001;28;20128;-70
2021/07/04 10:19:56;;;;;;;7.28;4.05;;;;;;;;;;5042301;28;20031;-73
2021/07/04 10:22:23;;;;;;;4.95;4.20;;;;;;;;;;5038616;28;20116;-71
2021/07/04 10:24:50;;;;;;;7.07;4.47;;;;;;;;;;5052924;28;20013;-69
2021/07/04 10:27:16;;;;;;;6.65;4.60;;;;;;;;;;5052462;28;20087;-72
2021/07/04 10:29:43;;;;;;;8.80;4.13;;;;;;;;;;5050996;28;20039;-67
2021/07/04 10:32:11;;;;;;;7.32;4.18;;;;;;;;;;5052852;28;20087;-71
2021/07/04 10:34:48;;;;;;;8.25;4.10;;;;;;;;;;5034740;28;20016;-72
2021/07/04 10:37:14;;;;;;;7.00;4.60;;;;;;;;;;5051507;28;20037;-68
2021/07/04 10:39:40;;;;;;;5.10;4.03;;;;;;;;;;5045466;28;20025;-72
2021/07/04 10:42:08;;;;;;;6.25;4.32;;;;;;;;;;5052543;28;20033;-70
2021/07/04 10:44:38;;;;;;;6.00;4.43;;;;;;;;;;5050870;28;20033;-71
2021/07/04 10:47:05;;;;;;;7.38;4.28;;;;;;;;;;5051326;28;20037;-71
2021/07/04 10:49:39;;;;;;;4.88;4.07;;;;;;;;;;5050586;28;20474;-66
2021/07/04 10:52:05;;;;;;;7.05;4.07;;;;;;;;;;5049076;28;20455;-66
2021/07/04 10:54:45;;;;;;;7.32;4.18;;;;;;;;;;5045437;28;20043;-67
2021/07/04 10:57:16;;;;;;;4.88;4.13;;;;;;;;;;5041467;28;20029;-77
2021/07/04 10:59:52;;;;;;;6.20;4.40;;;;;;;;;;5037813;28;20029;-80
2021/07/04 11:02:36;;;;;;;4.75;4.10;;;;;;;;;;5040962;28;20021;-75
2021/07/04 11:05:03;;;;;;;11.90;5.10;;;;;;;;;;5041502;28;20025;-76
2021/07/04 11:07:48;;;;;;;8.68;4.88;;;;;;;;;;5044393;28;20152;-74
2021/07/04 11:10:15;;;;;;;8.82;4.60;;;;;;;;;;5040495;28;20091;-74
2021/07/04 11:12:43;;;;;;;7.28;4.13;;;;;;;;;;5032871;28;20091;-72
2021/07/04 11:15:13;;;;;;;7.40;4.50;;;;;;;;;;5035800;28;20133;-71
2021/07/04 11:18:00;;;;;;;8.18;4.85;;;;;;;;;;5041631;28;20136;-69
2021/07/04 11:20:26;;;;;;;20.30;4.80;;;;;;;;;;5020338;28;20068;-67
2021/07/04 11:22:56;;;;;;;8.30;4.38;;;;;;;;;;5052386;28;20048;-73
2021/07/04 11:25:22;;;;;;;9.32;4.60;;;;;;;;;;5039480;28;20091;-70
2021/07/04 11:28:07;;;;;;;7.25;4.22;;;;;;;;;;5046646;28;20442;-74
2021/07/04 11:30:33;;;;;;;9.95;4.60;;;;;;;;;;5048492;28;20036;-69
2021/07/04 11:33:28;;;;;;;23.20;5.47;;;;;;;;;;5038564;28;20025;-77
2021/07/04 11:35:59;;;;;;;6.80;4.45;;;;;;;;;;5043886;28;20517;-72
2021/07/04 11:38:26;;;;;;;6.47;4.18;;;;;;;;;;5036581;28;20035;-85
2021/07/04 11:40:52;;;;;;;6.50;4.22;;;;;;;;;;5038477;28;20104;-74
2021/07/04 11:43:20;;;;;;;5.50;4.20;;;;;;;;;;5047866;28;20028;-67
2021/07/04 11:45:47;;;;;;;9.65;4.65;;;;;;;;;;5049671;28;20025;-73
2021/07/04 11:48:13;;;;;;;8.95;4.80;;;;;;;;;;5043769;28;20033;-72
2021/07/04 11:50:47;;;;;;;11.05;5.70;;;;;;;;;;5044364;28;20067;-66
2021/07/04 11:53:13;;;;;;;11.55;4.50;;;;;;;;;;5051318;28;20075;-67
2021/07/04 11:56:05;;;;;;;6.72;4.20;;;;;;;;;;5044233;28;20033;-72
2021/07/04 11:58:31;;;;;;;6.03;3.95;;;;;;;;;;5044919;28;20076;-71
2021/07/04 12:00:58;;;;;;;5.15;4.30;;;;;;;;;;5048825;28;20355;-67
2021/07/04 12:03:25;;;;;;;13.82;4.63;;;;;;;;;;5041036;28;20025;-67
2021/07/04 12:05:52;;;;;;;7.60;4.57;;;;;;;;;;5041088;28;20057;-72
2021/07/04 12:08:19;;;;;;;9.40;4.30;;;;;;;;;;5038624;28;20403;-71
2021/07/04 12:10:52;;;;;;;8.57;4.38;;;;;;;;;;5022796;28;20098;-68
2021/07/04 12:13:18;;;;;;;9.07;4.32;;;;;;;;;;5032304;28;20037;-72
2021/07/04 12:15:49;;;;;;;10.60;4.60;;;;;;;;;;5031844;28;20124;-69
2021/07/04 12:18:17;;;;;;;5.72;4.32;;;;;;;;;;5033353;28;20068;-75
2021/07/04 12:20:55;;;;;;;7.75;4.40;;;;;;;;;;5015468;28;20049;-68
2021/07/04 12:23:21;;;;;;;6.97;4.50;;;;;;;;;;5022224;28;20034;-74
2021/07/04 12:25:48;;;;;;;6.47;4.43;;;;;;;;;;5011814;28;20022;-69
2021/07/04 12:28:15;;;;;;;5.30;4.30;;;;;;;;;;5019700;28;20376;-73
2021/07/04 12:30:45;;;;;;;6.65;4.10;;;;;;;;;;5016321;28;20087;-72
2021/07/04 12:33:11;;;;;;;6.53;4.40;;;;;;;;;;5030106;28;20536;-73
2021/07/04 12:35:40;;;;;;;5.47;4.15;;;;;;;;;;5017341;28;20101;-67
2021/07/04 12:38:09;;;;;;;6.03;4.60;;;;;;;;;;5020030;28;20084;-74
2021/07/04 12:40:37;;;;;;;4.85;4.35;;;;;;;;;;5025296;28;20041;-71
2021/07/04 12:43:06;;;;;;;5.45;4.57;;;;;;;;;;5028912;28;20415;-73
2021/07/04 12:45:32;;;;;;;6.35;4.50;;;;;;;;;;5031622;28;20030;-73
2021/07/04 12:48:00;;;;;;;9.82;4.45;;;;;;;;;;5024370;28;20032;-67
2021/07/04 12:50:36;;;;;;;7.03;4.45;;;;;;;;;;5021996;28;20046;-69
2021/07/04 12:53:02;;;;;;;8.55;4.40;;;;;;;;;;5024506;28;20026;-74
2021/07/04 12:55:42;;;;;;;7.85;4.85;;;;;;;;;;5022845;28;20101;-73
2021/07/04 12:58:29;;;;;;;8.80;4.15;;;;;;;;;;5021393;28;20026;-70
2021/07/04 13:01:35;;;;;;;5.82;4.30;;;;;;;;;;5017355;28;20038;-67
2021/07/04 13:04:04;;;;;;;6.00;4.50;;;;;;;;;;4951121;28;20039;-69
2021/07/04 13:06:45;;;;;;;6.75;4.10;;;;;;;;;;4964059;28;20047;-73
2021/07/04 13:09:13;;;;;;;7.57;4.30;;;;;;;;;;4970115;28;20109;-72
2021/07/04 13:11:39;;;;;;;5.68;4.30;;;;;;;;;;4966126;28;20030;-68
2021/07/04 13:14:07;;;;;;;5.85;4.25;;;;;;;;;;4970135;28;20439;-72
2021/07/04 13:16:33;;;;;;;7.72;4.95;;;;;;;;;;4967505;28;20035;-73
2021/07/04 13:19:17;;;;;;;4.90;4.15;;;;;;;;;;4972052;28;20070;-74
2021/07/04 13:21:43;;;;;;;7.57;4.25;;;;;;;;;;4965168;28;20035;-73
2021/07/04 13:24:33;;;;;;;7.65;4.55;;;;;;;;;;4969465;28;20113;-75
2021/07/04 13:27:01;;;;;;;8.10;4.22;;;;;;;;;;4894209;29;20036;-72
2021/07/04 13:29:29;;;;;;;7.13;4.97;;;;;;;;;;4887355;29;20120;-72
2021/07/04 13:32:04;;;;;;;6.95;4.30;;;;;;;;;;4893689;29;20088;-73
2021/07/04 13:34:30;;;;;;;6.88;4.75;;;;;;;;;;4916402;29;20043;-71
2021/07/04 13:36:57;;;;;;;5.13;4.20;;;;;;;;;;4950400;29;20032;-73
2021/07/04 13:39:23;;;;;;;7.55;4.50;;;;;;;;;;4944837;29;20115;-70
2021/07/04 13:41:50;;;;;;;7.07;4.50;;;;;;;;;;4951350;29;20412;-73
2021/07/04 13:44:16;;;;;;;6.55;4.13;;;;;;;;;;4932346;29;20047;-69
2021/07/04 13:46:42;;;;;;;5.47;4.25;;;;;;;;;;4940695;29;20058;-73
2021/07/04 13:49:08;;;;;;;6.18;4.03;;;;;;;;;;4943042;29;20102;-74
2021/07/04 13:51:35;;;;;;;5.32;4.07;;;;;;;;;;4952542;29;20035;-70
2021/07/04 13:54:01;;;;;;;6.72;4.30;;;;;;;;;;4947465;29;20056;-69
2021/07/04 13:56:27;;;;;;;8.27;4.18;;;;;;;;;;4953113;29;20035;-73
2021/07/04 13:58:53;;;;;;;5.10;4.15;;;;;;;;;;4940365;29;20043;-68
2021/07/04 14:01:19;;;;;;;5.65;4.20;;;;;;;;;;4951648;29;20420;-74
2021/07/04 14:03:45;;;;;;;6.60;3.97;;;;;;;;;;4982493;28;20056;-74
2021/07/04 14:06:11;;;;;;;7.50;4.30;;;;;;;;;;5017513;28;20128;-67
2021/07/04 14:08:37;;;;;;;11.90;4.35;;;;;;;;;;5017381;28;20041;-74
2021/07/04 14:11:04;;;;;;;7.78;4.20;;;;;;;;;;5024747;28;20033;-74
2021/07/04 14:13:30;;;;;;;5.65;3.90;;;;;;;;;;5014092;28;20069;-68
2021/07/04 14:15:56;;;;;;;5.45;4.07;;;;;;;;;;5018661;28;20025;-68
2021/07/04 14:18:22;;;;;;;5.25;4.07;;;;;;;;;;5014672;28;20123;-67
2021/07/04 14:20:48;;;;;;;8.13;3.97;;;;;;;;;;5025883;28;20045;-73
2021/07/04 14:23:14;;;;;;;5.50;3.85;;;;;;;;;;5014034;28;20038;-70
2021/07/04 14:25:41;;;;;;;5.68;4.53;;;;;;;;;;5016675;28;20030;-74
2021/07/04 14:28:07;;;;;;;6.63;4.53;;;;;;;;;;5025810;28;20391;-74
2021/07/04 14:30:34;;;;;;;20.90;5.15;;;;;;;;;;5016512;28;20033;-67
2021/07/04 14:33:00;;;;;;;10.32;4.40;;;;;;;;;;5021827;28;20538;-72
2021/07/04 14:35:27;;;;;;;9.25;4.40;;;;;;;;;;5024272;28;20083;-68
2021/07/04 14:37:54;;;;;;;8.43;4.05;;;;;;;;;;5025254;28;20018;-72
2021/07/04 14:40:21;;;;;;;11.02;4.50;;;;;;;;;;5024430;28;20026;-72
2021/07/04 14:42:48;;;;;;;8.48;4.70;;;;;;;;;;5025862;28;20028;-71
2021/07/04 14:45:14;;;;;;;8.30;4.30;;;;;;;;;;5025700;28;20048;-72